sensor_id;sensor_type;location;lat;lon;timestamp;pressure;altitude;pressure_sealevel;temperature;humidity
55277;BME280;41136;51.478;-2.610;2023-02-23T00:02:15;100767.00;;;7.45;100.00
55277;BME280;41136;51.478;-2.610;2023-02-23T00:04:40;100769.75;;;7.37;100.00
55277;BME280;41136;51.478;-2.610;2023-02-23T00:07:06;100774.15;;;6.34;100.00
55277;BME280;41136;51.478;-2.610;2023-02-23T00:09:31;100776.07;;;6.64;100.00
55277;BME280;41136;51.478;-2.610;2023-02-23T00:11:57;100773.62;;;6.85;100.00
55277;BME280;41136;51.478;-2.610;2023-02-23T00:14:25;100776.61;;;6.55;100.00
55277;BME280;41136;51.478;-2.610;2023-02-23T00:16:48;100774.84;;;6.59;100.00
55277;BME280;41136;51.478;-2.610;2023-02-23T00:19:14;100777.63;;;6.98;100.00
55277;BME280;41136;51.478;-2.610;2023-02-23T00:21:40;100775.46;;;6.96;100.00
55277;BME280;41136;51.478;-2.610;2023-02-23T00:24:05;100778.53;;;6.78;100.00
55277;BME280;41136;51.478;-2.610;2023-02-23T00:26:31;100782.12;;;6.07;100.00
55277;BME280;41136;51.478;-2.610;2023-02-23T00:28:55;100778.54;;;6.12;100.00
55277;BME280;41136;51.478;-2.610;2023-02-23T00:31:21;100779.52;;;6.03;100.00
55277;BME280;41136;51.478;-2.610;2023-02-23T00:33:45;100778.67;;;6.48;100.00
55277;BME280;41136;51.478;-2.610;2023-02-23T00:36:13;100780.85;;;5.72;100.00
55277;BME280;41136;51.478;-2.610;2023-02-23T00:38:36;100787.42;;;5.30;100.00
55277;BME280;41136;51.478;-2.610;2023-02-23T00:41:06;100780.51;;;6.43;100.00
55277;BME280;41136;51.478;-2.610;2023-02-23T00:43:27;100784.55;;;5.55;100.00
55277;BME280;41136;51.478;-2.610;2023-02-23T00:45:53;100784.20;;;5.50;100.00
55277;BME280;41136;51.478;-2.610;2023-02-23T00:48:18;100785.74;;;5.57;100.00
55277;BME280;41136;51.478;-2.610;2023-02-23T00:50:43;100783.12;;;5.40;100.00
55277;BME280;41136;51.478;-2.610;2023-02-23T00:53:09;100783.97;;;5.32;100.00
55277;BME280;41136;51.478;-2.610;2023-02-23T00:55:34;100777.84;;;5.83;100.00
55277;BME280;41136;51.478;-2.610;2023-02-23T00:57:59;100780.29;;;5.91;100.00
55277;BME280;41136;51.478;-2.610;2023-02-23T01:00:25;100782.68;;;6.22;100.00
55277;BME280;41136;51.478;-2.610;2023-02-23T01:02:50;100789.37;;;5.47;100.00
55277;BME280;41136;51.478;-2.610;2023-02-23T01:05:16;100787.81;;;5.52;100.00
55277;BME280;41136;51.478;-2.610;2023-02-23T01:07:41;100791.31;;;5.37;100.00
55277;BME280;41136;51.478;-2.610;2023-02-23T01:10:07;100793.22;;;5.56;100.00
55277;BME280;41136;51.478;-2.610;2023-02-23T01:12:31;100794.94;;;5.75;100.00
55277;BME280;41136;51.478;-2.610;2023-02-23T01:14:57;100796.76;;;5.20;100.00
55277;BME280;41136;51.478;-2.610;2023-02-23T01:17:22;100798.60;;;5.43;100.00
55277;BME280;41136;51.478;-2.610;2023-02-23T01:19:48;100797.29;;;4.73;100.00
55277;BME280;41136;51.478;-2.610;2023-02-23T01:22:13;100807.30;;;5.11;100.00
55277;BME280;41136;51.478;-2.610;2023-02-23T01:24:38;100808.33;;;4.97;100.00
55277;BME280;41136;51.478;-2.610;2023-02-23T01:27:04;100817.93;;;4.29;100.00
55277;BME280;41136;51.478;-2.610;2023-02-23T01:29:29;100814.76;;;4.82;100.00
55277;BME280;41136;51.478;-2.610;2023-02-23T01:31:54;100817.22;;;4.41;100.00
55277;BME280;41136;51.478;-2.610;2023-02-23T01:34:20;100817.63;;;5.01;100.00
55277;BME280;41136;51.478;-2.610;2023-02-23T01:36:44;100819.53;;;5.84;100.00
55277;BME280;41136;51.478;-2.610;2023-02-23T01:39:12;100823.68;;;4.67;100.00
55277;BME280;41136;51.478;-2.610;2023-02-23T01:41:36;100822.29;;;5.10;100.00
55277;BME280;41136;51.478;-2.610;2023-02-23T01:44:03;100825.64;;;5.17;100.00
55277;BME280;41136;51.478;-2.610;2023-02-23T01:46:26;100824.53;;;4.71;100.00
55277;BME280;41136;51.478;-2.610;2023-02-23T01:48:53;100831.53;;;4.58;100.00
55277;BME280;41136;51.478;-2.610;2023-02-23T01:51:18;100827.65;;;5.38;100.00
55277;BME280;41136;51.478;-2.610;2023-02-23T01:53:47;100830.83;;;5.00;100.00
55277;BME280;41136;51.478;-2.610;2023-02-23T01:56:11;100833.40;;;4.99;100.00
55277;BME280;41136;51.478;-2.610;2023-02-23T01:58:34;100835.32;;;5.24;100.00
55277;BME280;41136;51.478;-2.610;2023-02-23T02:00:59;100832.24;;;5.84;100.00
55277;BME280;41136;51.478;-2.610;2023-02-23T02:03:28;100830.06;;;4.79;100.00
55277;BME280;41136;51.478;-2.610;2023-02-23T02:05:50;100834.25;;;5.54;100.00
55277;BME280;41136;51.478;-2.610;2023-02-23T02:08:16;100836.14;;;5.38;100.00
55277;BME280;41136;51.478;-2.610;2023-02-23T02:10:40;100838.56;;;4.54;100.00
55277;BME280;41136;51.478;-2.610;2023-02-23T02:13:07;100841.20;;;4.55;100.00
55277;BME280;41136;51.478;-2.610;2023-02-23T02:15:34;100842.69;;;4.81;100.00
55277;BME280;41136;51.478;-2.610;2023-02-23T02:18:03;100838.94;;;5.23;100.00
55277;BME280;41136;51.478;-2.610;2023-02-23T02:20:31;100838.21;;;5.66;100.00
55277;BME280;41136;51.478;-2.610;2023-02-23T02:23:04;100837.70;;;5.50;100.00
55277;BME280;41136;51.478;-2.610;2023-02-23T02:25:21;100834.95;;;6.26;100.00
55277;BME280;41136;51.478;-2.610;2023-02-23T02:27:52;100837.38;;;5.17;100.00
55277;BME280;41136;51.478;-2.610;2023-02-23T02:30:15;100838.34;;;5.05;100.00
55277;BME280;41136;51.478;-2.610;2023-02-23T02:35:05;100833.58;;;5.41;100.00
55277;BME280;41136;51.478;-2.610;2023-02-23T02:37:28;100837.19;;;6.23;100.00
55277;BME280;41136;51.478;-2.610;2023-02-23T02:43:36;100839.61;;;4.78;100.00
55277;BME280;41136;51.478;-2.610;2023-02-23T02:45:55;100842.05;;;4.31;100.00
55277;BME280;41136;51.478;-2.610;2023-02-23T02:48:22;100844.30;;;4.76;100.00
55277;BME280;41136;51.478;-2.610;2023-02-23T02:50:44;100841.73;;;5.38;100.00
55277;BME280;41136;51.478;-2.610;2023-02-23T02:53:09;100848.53;;;5.48;100.00
55277;BME280;41136;51.478;-2.610;2023-02-23T02:55:35;100846.49;;;5.02;100.00
55277;BME280;41136;51.478;-2.610;2023-02-23T02:57:58;100848.97;;;4.62;100.00
55277;BME280;41136;51.478;-2.610;2023-02-23T03:00:28;100851.65;;;4.63;100.00
55277;BME280;41136;51.478;-2.610;2023-02-23T03:02:49;100851.84;;;4.75;100.00
55277;BME280;41136;51.478;-2.610;2023-02-23T03:05:17;100852.72;;;4.85;100.00
55277;BME280;41136;51.478;-2.610;2023-02-23T03:07:45;100850.71;;;5.32;100.00
55277;BME280;41136;51.478;-2.610;2023-02-23T03:10:11;100854.10;;;5.65;100.00
55277;BME280;41136;51.478;-2.610;2023-02-23T03:12:36;100855.03;;;5.70;100.00
55277;BME280;41136;51.478;-2.610;2023-02-23T03:15:05;100855.06;;;4.72;100.00
55277;BME280;41136;51.478;-2.610;2023-02-23T03:17:27;100857.33;;;4.65;100.00
55277;BME280;41136;51.478;-2.610;2023-02-23T03:19:54;100849.02;;;5.22;100.00
55277;BME280;41136;51.478;-2.610;2023-02-23T03:22:18;100850.70;;;5.53;100.00
55277;BME280;41136;51.478;-2.610;2023-02-23T03:24:40;100846.90;;;5.94;100.00
55277;BME280;41136;51.478;-2.610;2023-02-23T03:27:06;100850.84;;;5.53;100.00
55277;BME280;41136;51.478;-2.610;2023-02-23T03:29:32;100855.18;;;5.06;100.00
55277;BME280;41136;51.478;-2.610;2023-02-23T03:32:02;100854.32;;;5.23;100.00
55277;BME280;41136;51.478;-2.610;2023-02-23T03:34:24;100853.55;;;5.31;100.00
55277;BME280;41136;51.478;-2.610;2023-02-23T03:36:48;100851.42;;;5.45;100.00
55277;BME280;41136;51.478;-2.610;2023-02-23T03:39:17;100848.16;;;5.57;100.00
55277;BME280;41136;51.478;-2.610;2023-02-23T03:41:37;100849.89;;;5.60;100.00
55277;BME280;41136;51.478;-2.610;2023-02-23T03:44:05;100849.15;;;6.44;100.00
55277;BME280;41136;51.478;-2.610;2023-02-23T03:46:28;100852.90;;;5.45;100.00
55277;BME280;41136;51.478;-2.610;2023-02-23T03:48:53;100851.96;;;6.24;100.00
55277;BME280;41136;51.478;-2.610;2023-02-23T03:51:18;100851.94;;;5.58;100.00
55277;BME280;41136;51.478;-2.610;2023-02-23T03:53:46;100856.30;;;6.08;100.00
55277;BME280;41136;51.478;-2.610;2023-02-23T03:56:09;100857.73;;;5.61;100.00
55277;BME280;41136;51.478;-2.610;2023-02-23T03:58:37;100855.74;;;6.45;100.00
55277;BME280;41136;51.478;-2.610;2023-02-23T04:01:02;100856.71;;;6.20;100.00
55277;BME280;41136;51.478;-2.610;2023-02-23T04:03:25;100856.11;;;6.20;100.00
55277;BME280;41136;51.478;-2.610;2023-02-23T04:05:52;100859.45;;;6.07;100.00
55277;BME280;41136;51.478;-2.610;2023-02-23T04:08:18;100866.90;;;5.57;100.00
55277;BME280;41136;51.478;-2.610;2023-02-23T04:10:47;100867.28;;;6.04;100.00
55277;BME280;41136;51.478;-2.610;2023-02-23T04:13:10;100870.36;;;5.73;100.00
55277;BME280;41136;51.478;-2.610;2023-02-23T04:15:34;100877.22;;;5.15;100.00
55277;BME280;41136;51.478;-2.610;2023-02-23T04:17:58;100876.92;;;5.87;100.00
55277;BME280;41136;51.478;-2.610;2023-02-23T04:20:23;100876.55;;;5.77;100.00
55277;BME280;41136;51.478;-2.610;2023-02-23T04:22:48;100880.59;;;5.23;100.00
55277;BME280;41136;51.478;-2.610;2023-02-23T04:25:15;100877.21;;;6.26;100.00
55277;BME280;41136;51.478;-2.610;2023-02-23T04:27:39;100884.56;;;5.84;100.00
55277;BME280;41136;51.478;-2.610;2023-02-23T04:30:06;100884.89;;;5.39;100.00
55277;BME280;41136;51.478;-2.610;2023-02-23T04:32:30;100888.13;;;4.71;100.00
55277;BME280;41136;51.478;-2.610;2023-02-23T04:34:55;100892.45;;;4.99;100.00
55277;BME280;41136;51.478;-2.610;2023-02-23T04:37:22;100892.25;;;5.41;100.00
55277;BME280;41136;51.478;-2.610;2023-02-23T04:39:46;100899.46;;;5.26;100.00
55277;BME280;41136;51.478;-2.610;2023-02-23T04:42:12;100905.29;;;4.77;100.00
55277;BME280;41136;51.478;-2.610;2023-02-23T04:44:37;100911.86;;;5.07;100.00
55277;BME280;41136;51.478;-2.610;2023-02-23T04:47:02;100903.63;;;4.19;100.00
55277;BME280;41136;51.478;-2.610;2023-02-23T04:49:28;100916.74;;;4.18;100.00
55277;BME280;41136;51.478;-2.610;2023-02-23T04:51:53;100913.03;;;4.24;100.00
55277;BME280;41136;51.478;-2.610;2023-02-23T04:54:18;100917.64;;;4.29;100.00
55277;BME280;41136;51.478;-2.610;2023-02-23T04:56:44;100922.00;;;4.96;100.00
55277;BME280;41136;51.478;-2.610;2023-02-23T04:59:09;100923.13;;;4.92;100.00
55277;BME280;41136;51.478;-2.610;2023-02-23T05:01:35;100926.47;;;4.72;100.00
55277;BME280;41136;51.478;-2.610;2023-02-23T05:04:00;100929.72;;;4.98;100.00
55277;BME280;41136;51.478;-2.610;2023-02-23T05:06:26;100934.52;;;5.34;100.00
55277;BME280;41136;51.478;-2.610;2023-02-23T05:08:51;100935.06;;;5.06;100.00
55277;BME280;41136;51.478;-2.610;2023-02-23T05:11:17;100940.22;;;5.03;100.00
55277;BME280;41136;51.478;-2.610;2023-02-23T05:13:42;100940.07;;;5.14;100.00
55277;BME280;41136;51.478;-2.610;2023-02-23T05:16:08;100943.32;;;4.23;100.00
55277;BME280;41136;51.478;-2.610;2023-02-23T05:18:33;100942.19;;;4.19;100.00
55277;BME280;41136;51.478;-2.610;2023-02-23T05:21:01;100941.59;;;4.31;100.00
55277;BME280;41136;51.478;-2.610;2023-02-23T05:23:24;100946.06;;;4.07;100.00
55277;BME280;41136;51.478;-2.610;2023-02-23T05:25:49;100951.62;;;5.05;100.00
55277;BME280;41136;51.478;-2.610;2023-02-23T05:28:15;100957.89;;;4.69;100.00
55277;BME280;41136;51.478;-2.610;2023-02-23T05:30:40;100964.05;;;5.42;100.00
55277;BME280;41136;51.478;-2.610;2023-02-23T05:33:06;100962.23;;;5.05;100.00
55277;BME280;41136;51.478;-2.610;2023-02-23T05:35:31;100962.96;;;5.74;100.00
55277;BME280;41136;51.478;-2.610;2023-02-23T05:37:57;100967.05;;;5.62;100.00
55277;BME280;41136;51.478;-2.610;2023-02-23T05:40:22;100964.20;;;4.87;100.00
55277;BME280;41136;51.478;-2.610;2023-02-23T05:42:47;100966.78;;;5.07;100.00
55277;BME280;41136;51.478;-2.610;2023-02-23T05:45:13;100971.37;;;5.75;100.00
55277;BME280;41136;51.478;-2.610;2023-02-23T05:47:38;100975.06;;;5.48;100.00
55277;BME280;41136;51.478;-2.610;2023-02-23T05:50:05;100974.59;;;5.51;100.00
55277;BME280;41136;51.478;-2.610;2023-02-23T05:52:30;100978.52;;;5.61;100.00
55277;BME280;41136;51.478;-2.610;2023-02-23T05:54:55;100978.16;;;5.95;100.00
55277;BME280;41136;51.478;-2.610;2023-02-23T05:57:20;100970.72;;;4.90;100.00
55277;BME280;41136;51.478;-2.610;2023-02-23T05:59:46;100972.40;;;4.89;100.00
55277;BME280;41136;51.478;-2.610;2023-02-23T06:02:11;100977.92;;;5.61;100.00
55277;BME280;41136;51.478;-2.610;2023-02-23T06:04:37;100981.45;;;5.47;100.00
55277;BME280;41136;51.478;-2.610;2023-02-23T06:07:02;100984.91;;;5.15;100.00
55277;BME280;41136;51.478;-2.610;2023-02-23T06:09:28;100987.36;;;5.38;100.00
55277;BME280;41136;51.478;-2.610;2023-02-23T06:11:53;100987.80;;;5.36;100.00
55277;BME280;41136;51.478;-2.610;2023-02-23T06:14:19;100988.11;;;5.13;100.00
55277;BME280;41136;51.478;-2.610;2023-02-23T06:16:44;100989.32;;;5.72;100.00
55277;BME280;41136;51.478;-2.610;2023-02-23T06:19:10;100989.68;;;5.02;100.00
55277;BME280;41136;51.478;-2.610;2023-02-23T06:21:35;100992.29;;;4.55;100.00
55277;BME280;41136;51.478;-2.610;2023-02-23T06:24:00;100994.74;;;5.09;100.00
55277;BME280;41136;51.478;-2.610;2023-02-23T06:26:27;100999.19;;;5.22;100.00
55277;BME280;41136;51.478;-2.610;2023-02-23T06:28:51;101002.81;;;5.87;100.00
55277;BME280;41136;51.478;-2.610;2023-02-23T06:31:16;101005.85;;;5.57;100.00
55277;BME280;41136;51.478;-2.610;2023-02-23T06:33:42;101004.24;;;5.87;100.00
55277;BME280;41136;51.478;-2.610;2023-02-23T06:36:07;101009.07;;;5.80;100.00
55277;BME280;41136;51.478;-2.610;2023-02-23T06:38:33;101006.52;;;5.46;100.00
55277;BME280;41136;51.478;-2.610;2023-02-23T06:40:58;101013.07;;;5.22;100.00
55277;BME280;41136;51.478;-2.610;2023-02-23T06:43:24;101013.10;;;5.41;100.00
55277;BME280;41136;51.478;-2.610;2023-02-23T06:45:49;101015.05;;;6.18;100.00
55277;BME280;41136;51.478;-2.610;2023-02-23T06:48:15;101010.20;;;5.21;100.00
55277;BME280;41136;51.478;-2.610;2023-02-23T06:50:40;101010.61;;;5.19;100.00
55277;BME280;41136;51.478;-2.610;2023-02-23T06:53:05;101011.84;;;4.75;100.00
55277;BME280;41136;51.478;-2.610;2023-02-23T06:55:31;101008.79;;;5.11;100.00
55277;BME280;41136;51.478;-2.610;2023-02-23T06:57:56;101010.38;;;5.23;100.00
55277;BME280;41136;51.478;-2.610;2023-02-23T07:00:22;101014.65;;;5.02;100.00
55277;BME280;41136;51.478;-2.610;2023-02-23T07:02:47;101014.44;;;5.53;100.00
55277;BME280;41136;51.478;-2.610;2023-02-23T07:05:13;101011.80;;;5.04;100.00
55277;BME280;41136;51.478;-2.610;2023-02-23T07:07:38;101017.10;;;5.06;100.00
55277;BME280;41136;51.478;-2.610;2023-02-23T07:10:05;101019.70;;;5.69;100.00
55277;BME280;41136;51.478;-2.610;2023-02-23T07:12:30;101024.81;;;5.83;100.00
55277;BME280;41136;51.478;-2.610;2023-02-23T07:14:54;101021.33;;;4.87;100.00
55277;BME280;41136;51.478;-2.610;2023-02-23T07:17:20;101028.43;;;4.28;100.00
55277;BME280;41136;51.478;-2.610;2023-02-23T07:19:45;101034.49;;;4.63;100.00
55277;BME280;41136;51.478;-2.610;2023-02-23T07:22:11;101039.06;;;5.24;100.00
55277;BME280;41136;51.478;-2.610;2023-02-23T07:24:36;101041.22;;;5.18;100.00
55277;BME280;41136;51.478;-2.610;2023-02-23T07:27:01;101050.29;;;4.94;100.00
55277;BME280;41136;51.478;-2.610;2023-02-23T07:29:27;101042.24;;;4.76;100.00
55277;BME280;41136;51.478;-2.610;2023-02-23T07:31:52;101056.45;;;4.41;100.00
55277;BME280;41136;51.478;-2.610;2023-02-23T07:34:17;101058.36;;;4.71;100.00
55277;BME280;41136;51.478;-2.610;2023-02-23T07:36:43;101064.32;;;3.96;100.00
55277;BME280;41136;51.478;-2.610;2023-02-23T07:39:08;101067.55;;;3.52;100.00
55277;BME280;41136;51.478;-2.610;2023-02-23T07:41:33;101076.90;;;4.27;100.00
55277;BME280;41136;51.478;-2.610;2023-02-23T07:43:59;101071.24;;;4.91;100.00
55277;BME280;41136;51.478;-2.610;2023-02-23T07:46:25;101079.33;;;4.41;100.00
55277;BME280;41136;51.478;-2.610;2023-02-23T07:48:50;101079.36;;;4.40;100.00
55277;BME280;41136;51.478;-2.610;2023-02-23T07:51:15;101085.37;;;4.84;100.00
55277;BME280;41136;51.478;-2.610;2023-02-23T07:53:41;101089.32;;;4.31;100.00
55277;BME280;41136;51.478;-2.610;2023-02-23T07:56:07;101088.71;;;4.81;100.00
55277;BME280;41136;51.478;-2.610;2023-02-23T07:58:31;101098.64;;;5.26;100.00
55277;BME280;41136;51.478;-2.610;2023-02-23T08:00:57;101100.46;;;4.94;100.00
55277;BME280;41136;51.478;-2.610;2023-02-23T08:03:22;101103.39;;;5.01;100.00
55277;BME280;41136;51.478;-2.610;2023-02-23T08:05:48;101108.07;;;5.17;100.00
55277;BME280;41136;51.478;-2.610;2023-02-23T08:08:13;101110.98;;;3.98;100.00
55277;BME280;41136;51.478;-2.610;2023-02-23T08:10:39;101113.07;;;3.58;100.00
55277;BME280;41136;51.478;-2.610;2023-02-23T08:13:04;101114.86;;;4.40;100.00
55277;BME280;41136;51.478;-2.610;2023-02-23T08:15:29;101117.29;;;4.75;100.00
55277;BME280;41136;51.478;-2.610;2023-02-23T08:17:55;101117.28;;;3.81;100.00
55277;BME280;41136;51.478;-2.610;2023-02-23T08:20:20;101123.82;;;4.77;100.00
55277;BME280;41136;51.478;-2.610;2023-02-23T08:22:45;101127.62;;;4.31;100.00
55277;BME280;41136;51.478;-2.610;2023-02-23T08:25:10;101125.55;;;3.89;100.00
55277;BME280;41136;51.478;-2.610;2023-02-23T08:27:37;101130.48;;;4.19;100.00
55277;BME280;41136;51.478;-2.610;2023-02-23T08:30:02;101130.69;;;4.17;100.00
55277;BME280;41136;51.478;-2.610;2023-02-23T08:32:26;101130.42;;;4.36;100.00
55277;BME280;41136;51.478;-2.610;2023-02-23T08:34:51;101130.94;;;4.67;100.00
55277;BME280;41136;51.478;-2.610;2023-02-23T08:37:17;101132.62;;;5.04;100.00
55277;BME280;41136;51.478;-2.610;2023-02-23T08:39:42;101131.83;;;4.32;100.00
55277;BME280;41136;51.478;-2.610;2023-02-23T08:42:08;101130.59;;;4.53;100.00
55277;BME280;41136;51.478;-2.610;2023-02-23T08:44:33;101129.09;;;4.24;100.00
55277;BME280;41136;51.478;-2.610;2023-02-23T08:46:59;101136.03;;;4.42;100.00
55277;BME280;41136;51.478;-2.610;2023-02-23T08:49:24;101141.43;;;4.48;100.00
55277;BME280;41136;51.478;-2.610;2023-02-23T08:51:50;101144.26;;;4.91;100.00
55277;BME280;41136;51.478;-2.610;2023-02-23T08:54:15;101147.55;;;5.95;100.00
55277;BME280;41136;51.478;-2.610;2023-02-23T08:56:41;101153.93;;;5.26;100.00
55277;BME280;41136;51.478;-2.610;2023-02-23T08:59:06;101163.58;;;4.76;100.00
55277;BME280;41136;51.478;-2.610;2023-02-23T09:01:32;101161.74;;;4.66;100.00
55277;BME280;41136;51.478;-2.610;2023-02-23T09:03:57;101165.46;;;4.08;100.00
55277;BME280;41136;51.478;-2.610;2023-02-23T09:06:24;101166.38;;;4.90;100.00
55277;BME280;41136;51.478;-2.610;2023-02-23T09:08:48;101169.67;;;5.75;100.00
55277;BME280;41136;51.478;-2.610;2023-02-23T09:11:13;101165.78;;;5.69;100.00
55277;BME280;41136;51.478;-2.610;2023-02-23T09:13:38;101175.94;;;4.79;100.00
55277;BME280;41136;51.478;-2.610;2023-02-23T09:16:05;101172.53;;;5.52;100.00
55277;BME280;41136;51.478;-2.610;2023-02-23T09:18:29;101172.24;;;5.48;100.00
55277;BME280;41136;51.478;-2.610;2023-02-23T09:20:55;101170.05;;;4.53;100.00
55277;BME280;41136;51.478;-2.610;2023-02-23T09:23:20;101171.27;;;5.55;100.00
55277;BME280;41136;51.478;-2.610;2023-02-23T09:25:45;101175.48;;;4.37;100.00
55277;BME280;41136;51.478;-2.610;2023-02-23T09:28:12;101177.33;;;4.96;100.00
55277;BME280;41136;51.478;-2.610;2023-02-23T09:30:42;101176.85;;;3.75;100.00
55277;BME280;41136;51.478;-2.610;2023-02-23T09:33:01;101182.73;;;4.76;100.00
55277;BME280;41136;51.478;-2.610;2023-02-23T09:35:27;101185.25;;;5.70;100.00
55277;BME280;41136;51.478;-2.610;2023-02-23T09:37:54;101177.87;;;4.11;100.00
55277;BME280;41136;51.478;-2.610;2023-02-23T09:40:22;101190.69;;;4.97;100.00
55277;BME280;41136;51.478;-2.610;2023-02-23T09:42:50;101186.30;;;5.07;100.00
55277;BME280;41136;51.478;-2.610;2023-02-23T09:45:19;101195.27;;;5.09;100.00
55277;BME280;41136;51.478;-2.610;2023-02-23T09:47:43;101192.40;;;5.70;100.00
55277;BME280;41136;51.478;-2.610;2023-02-23T09:50:03;101188.46;;;5.29;100.00
55277;BME280;41136;51.478;-2.610;2023-02-23T09:52:33;101185.96;;;4.74;100.00
55277;BME280;41136;51.478;-2.610;2023-02-23T09:54:50;101191.89;;;4.72;100.00
55277;BME280;41136;51.478;-2.610;2023-02-23T09:57:18;101190.46;;;4.17;100.00
55277;BME280;41136;51.478;-2.610;2023-02-23T09:59:41;101191.98;;;4.48;100.00
55277;BME280;41136;51.478;-2.610;2023-02-23T10:02:15;101186.51;;;4.96;100.00
55277;BME280;41136;51.478;-2.610;2023-02-23T10:04:36;101197.96;;;5.04;100.00
55277;BME280;41136;51.478;-2.610;2023-02-23T10:07:01;101204.57;;;5.45;100.00
55277;BME280;41136;51.478;-2.610;2023-02-23T10:09:27;101208.17;;;6.03;100.00
55277;BME280;41136;51.478;-2.610;2023-02-23T10:11:52;101206.81;;;6.11;100.00
55277;BME280;41136;51.478;-2.610;2023-02-23T10:14:24;101217.79;;;6.11;100.00
55277;BME280;41136;51.478;-2.610;2023-02-23T10:16:50;101213.93;;;6.21;100.00
55277;BME280;41136;51.478;-2.610;2023-02-23T10:19:12;101221.85;;;6.78;100.00
55277;BME280;41136;51.478;-2.610;2023-02-23T10:21:33;101217.39;;;6.57;100.00
55277;BME280;41136;51.478;-2.610;2023-02-23T10:23:58;101221.63;;;6.40;100.00
55277;BME280;41136;51.478;-2.610;2023-02-23T10:26:24;101232.20;;;5.79;100.00
55277;BME280;41136;51.478;-2.610;2023-02-23T10:28:46;101228.03;;;5.92;100.00
55277;BME280;41136;51.478;-2.610;2023-02-23T10:31:27;101237.72;;;5.71;100.00
55277;BME280;41136;51.478;-2.610;2023-02-23T10:33:40;101229.41;;;5.91;100.00
55277;BME280;41136;51.478;-2.610;2023-02-23T10:36:11;101224.36;;;6.04;100.00
55277;BME280;41136;51.478;-2.610;2023-02-23T10:38:28;101220.65;;;5.53;100.00
55277;BME280;41136;51.478;-2.610;2023-02-23T10:40:54;101218.77;;;6.58;100.00
55277;BME280;41136;51.478;-2.610;2023-02-23T10:43:18;101229.81;;;5.89;100.00
55277;BME280;41136;51.478;-2.610;2023-02-23T10:45:46;101224.58;;;5.49;100.00
55277;BME280;41136;51.478;-2.610;2023-02-23T10:48:16;101236.12;;;5.37;100.00
55277;BME280;41136;51.478;-2.610;2023-02-23T10:50:36;101227.58;;;5.60;100.00
55277;BME280;41136;51.478;-2.610;2023-02-23T10:53:09;101225.15;;;5.47;100.00
55277;BME280;41136;51.478;-2.610;2023-02-23T10:55:27;101224.46;;;6.12;100.00
55277;BME280;41136;51.478;-2.610;2023-02-23T10:58:01;101230.32;;;5.33;100.00
55277;BME280;41136;51.478;-2.610;2023-02-23T11:02:42;101226.85;;;5.21;100.00
55277;BME280;41136;51.478;-2.610;2023-02-23T11:05:23;101229.15;;;5.79;100.00
55277;BME280;41136;51.478;-2.610;2023-02-23T11:07:33;101227.90;;;5.67;100.00
55277;BME280;41136;51.478;-2.610;2023-02-23T11:09:58;101225.99;;;6.16;100.00
55277;BME280;41136;51.478;-2.610;2023-02-23T11:12:24;101229.50;;;5.27;100.00
55277;BME280;41136;51.478;-2.610;2023-02-23T11:14:50;101226.94;;;5.42;100.00
55277;BME280;41136;51.478;-2.610;2023-02-23T11:19:40;101235.53;;;6.53;100.00
55277;BME280;41136;51.478;-2.610;2023-02-23T11:22:06;101232.85;;;6.31;100.00
55277;BME280;41136;51.478;-2.610;2023-02-23T11:24:39;101227.73;;;6.13;100.00
55277;BME280;41136;51.478;-2.610;2023-02-23T11:26:57;101239.50;;;6.12;100.00
55277;BME280;41136;51.478;-2.610;2023-02-23T11:29:24;101238.49;;;6.39;100.00
55277;BME280;41136;51.478;-2.610;2023-02-23T11:31:49;101248.44;;;6.07;100.00
55277;BME280;41136;51.478;-2.610;2023-02-23T11:34:19;101254.48;;;6.65;100.00
55277;BME280;41136;51.478;-2.610;2023-02-23T11:36:37;101247.62;;;6.57;100.00
55277;BME280;41136;51.478;-2.610;2023-02-23T11:39:13;101245.36;;;6.50;100.00
55277;BME280;41136;51.478;-2.610;2023-02-23T11:41:28;101238.52;;;5.44;100.00
55277;BME280;41136;51.478;-2.610;2023-02-23T11:43:57;101236.75;;;6.25;100.00
55277;BME280;41136;51.478;-2.610;2023-02-23T11:46:19;101243.34;;;6.53;100.00
55277;BME280;41136;51.478;-2.610;2023-02-23T11:48:48;101241.28;;;5.82;100.00
55277;BME280;41136;51.478;-2.610;2023-02-23T11:51:09;101235.18;;;6.73;100.00
55277;BME280;41136;51.478;-2.610;2023-02-23T11:53:37;101240.74;;;6.69;100.00
55277;BME280;41136;51.478;-2.610;2023-02-23T11:56:02;101247.94;;;7.43;100.00
55277;BME280;41136;51.478;-2.610;2023-02-23T11:58:32;101248.10;;;6.65;100.00
55277;BME280;41136;51.478;-2.610;2023-02-23T12:00:56;101240.33;;;6.50;100.00
55277;BME280;41136;51.478;-2.610;2023-02-23T12:03:20;101241.71;;;6.86;100.00
55277;BME280;41136;51.478;-2.610;2023-02-23T12:05:48;101243.10;;;6.62;100.00
55277;BME280;41136;51.478;-2.610;2023-02-23T12:08:11;101247.31;;;6.59;100.00
55277;BME280;41136;51.478;-2.610;2023-02-23T12:10:38;101247.54;;;6.60;100.00
55277;BME280;41136;51.478;-2.610;2023-02-23T12:13:04;101245.75;;;6.29;100.00
55277;BME280;41136;51.478;-2.610;2023-02-23T12:15:29;101239.28;;;6.28;100.00
55277;BME280;41136;51.478;-2.610;2023-02-23T12:17:54;101239.42;;;6.83;100.00
55277;BME280;41136;51.478;-2.610;2023-02-23T12:20:19;101238.95;;;6.58;99.96
55277;BME280;41136;51.478;-2.610;2023-02-23T12:22:42;101243.70;;;7.48;98.37
55277;BME280;41136;51.478;-2.610;2023-02-23T12:25:12;101243.37;;;7.70;98.14
55277;BME280;41136;51.478;-2.610;2023-02-23T12:27:33;101243.75;;;6.85;98.95
55277;BME280;41136;51.478;-2.610;2023-02-23T12:30:02;101239.39;;;7.23;97.17
55277;BME280;41136;51.478;-2.610;2023-02-23T12:32:25;101241.29;;;6.59;97.73
55277;BME280;41136;51.478;-2.610;2023-02-23T12:34:50;101242.76;;;7.16;97.48
55277;BME280;41136;51.478;-2.610;2023-02-23T12:37:24;101242.95;;;7.80;96.45
55277;BME280;41136;51.478;-2.610;2023-02-23T12:39:40;101245.29;;;8.36;93.74
55277;BME280;41136;51.478;-2.610;2023-02-23T12:42:09;101241.93;;;8.13;93.36